Time;durP1;ratioP1;P1;durP2;ratioP2;P2;SDS_P1;SDS_P2;PMS_P1;PMS_P2;Temp;Humidity;BMP_temperature;BMP_pressure;BME280_temperature;BME280_humidity;BME280_pressure;Samples;Min_cycle;Max_cycle;Signal;HPM_P1;HPM_P2
2022/12/26 00:00:10;;;;;;;3.63;3.33;;;;;;;;;;6267670;28;20264;-85
2022/12/26 00:03:17;;;;;;;3.60;3.40;;;;;;;;;;6264539;28;20268;-84
2022/12/26 00:06:25;;;;;;;3.67;3.43;;;;;;;;;;6264157;28;20267;-86
2022/12/26 00:09:32;;;;;;;3.70;3.40;;;;;;;;;;6263471;28;20298;-85
2022/12/26 00:12:37;;;;;;;4.60;4.10;;;;;;;;;;6276684;28;20266;-85
2022/12/26 00:15:43;;;;;;;4.10;3.80;;;;;;;;;;6288608;28;20495;-85
2022/12/26 00:18:50;;;;;;;3.50;3.20;;;;;;;;;;6287471;28;20274;-85
2022/12/26 00:21:57;;;;;;;5.27;3.50;;;;;;;;;;6288217;28;20267;-86
2022/12/26 00:25:02;;;;;;;3.73;3.30;;;;;;;;;;6289220;28;20267;-85
2022/12/26 00:28:07;;;;;;;3.87;3.63;;;;;;;;;;6287500;28;20287;-84
2022/12/26 00:31:14;;;;;;;4.10;3.40;;;;;;;;;;6287107;28;20287;-85
2022/12/26 00:34:21;;;;;;;4.53;4.13;;;;;;;;;;6287668;28;20263;-85
2022/12/26 00:37:26;;;;;;;4.73;3.73;;;;;;;;;;6287778;28;20267;-85
2022/12/26 00:40:31;;;;;;;4.13;3.73;;;;;;;;;;6287899;28;20564;-85
2022/12/26 00:43:37;;;;;;;4.00;3.77;;;;;;;;;;6287451;28;20273;-86
2022/12/26 00:46:42;;;;;;;4.47;4.07;;;;;;;;;;6287868;28;20273;-85
2022/12/26 00:49:49;;;;;;;4.27;3.47;;;;;;;;;;6287940;28;20295;-85
2022/12/26 00:53:14;;;;;;;4.23;3.50;;;;;;;;;;6287731;28;20270;-85
2022/12/26 00:56:20;;;;;;;4.47;4.17;;;;;;;;;;6287450;28;20534;-85
2022/12/26 00:59:25;;;;;;;3.90;3.60;;;;;;;;;;6287633;28;20277;-85
2022/12/26 01:02:40;;;;;;;4.67;4.17;;;;;;;;;;6287473;28;20274;-85
2022/12/26 01:05:49;;;;;;;4.50;4.00;;;;;;;;;;6286650;28;20362;-85
2022/12/26 01:08:55;;;;;;;9.30;4.13;;;;;;;;;;6286773;28;20481;-85
2022/12/26 01:12:00;;;;;;;4.80;3.70;;;;;;;;;;6279338;28;20263;-85
2022/12/26 01:15:07;;;;;;;4.50;4.10;;;;;;;;;;6262624;28;20413;-85
2022/12/26 01:18:14;;;;;;;4.93;4.10;;;;;;;;;;6244431;28;20574;-85
2022/12/26 01:21:21;;;;;;;4.30;3.90;;;;;;;;;;6262149;28;20547;-85
2022/12/26 01:24:26;;;;;;;4.80;4.00;;;;;;;;;;6261997;28;20291;-85
2022/12/26 01:27:31;;;;;;;5.97;4.03;;;;;;;;;;6268013;28;20453;-85
2022/12/26 01:30:37;;;;;;;7.57;4.23;;;;;;;;;;6245707;28;20390;-85
2022/12/26 01:33:43;;;;;;;8.70;5.20;;;;;;;;;;6247366;28;20268;-84
2022/12/26 01:36:49;;;;;;;5.30;4.27;;;;;;;;;;6263662;28;20280;-86
2022/12/26 01:39:54;;;;;;;5.00;4.50;;;;;;;;;;6261659;28;20267;-86
2022/12/26 01:42:59;;;;;;;4.67;4.23;;;;;;;;;;6261931;28;20269;-85
2022/12/26 01:46:05;;;;;;;5.53;4.70;;;;;;;;;;6261574;28;20267;-86
2022/12/26 01:49:15;;;;;;;10.20;5.40;;;;;;;;;;6262250;28;20285;-86
2022/12/26 01:52:24;;;;;;;8.33;4.90;;;;;;;;;;6262171;28;20275;-84
2022/12/26 01:55:31;;;;;;;5.90;5.03;;;;;;;;;;6261998;28;20268;-85
2022/12/26 01:58:39;;;;;;;5.40;4.77;;;;;;;;;;6261907;28;20272;-85
2022/12/26 02:01:45;;;;;;;5.43;4.83;;;;;;;;;;6262142;28;20546;-84
2022/12/26 02:08:21;;;;;;;6.40;4.93;;;;;;;;;;6281278;28;20274;-85
2022/12/26 02:11:32;;;;;;;6.53;4.97;;;;;;;;;;6281056;28;20275;-85
2022/12/26 02:14:37;;;;;;;9.87;5.43;;;;;;;;;;6288569;28;20446;-85
2022/12/26 02:17:43;;;;;;;7.07;5.07;;;;;;;;;;6288202;28;20271;-85
2022/12/26 02:20:57;;;;;;;5.50;5.07;;;;;;;;;;6294416;28;20277;-85
2022/12/26 02:24:27;;;;;;;6.63;5.17;;;;;;;;;;6293506;28;20261;-84
2022/12/26 02:28:02;;;;;;;4.40;4.00;;;;;;;;;;6264738;28;20277;-85
2022/12/26 02:31:14;;;;;;;3.63;3.30;;;;;;;;;;6288567;28;20291;-84
2022/12/26 02:34:23;;;;;;;4.97;4.57;;;;;;;;;;6288404;28;20287;-85
2022/12/26 02:37:38;;;;;;;6.83;4.10;;;;;;;;;;6288472;28;20270;-85
2022/12/26 02:40:52;;;;;;;6.13;4.60;;;;;;;;;;6287141;28;20277;-85
2022/12/26 02:47:01;;;;;;;5.83;4.40;;;;;;;;;;6285838;28;20267;-85
2022/12/26 02:47:40;;;;;;;4.73;4.10;;;;;;;;;;6288230;28;20270;-84
2022/12/26 03:15:10;;;;;;;5.70;4.20;;;;;;;;;;6273503;28;20219;-84
2022/12/26 03:18:14;;;;;;;8.53;5.03;;;;;;;;;;6305061;28;20451;-85
2022/12/26 03:21:24;;;;;;;6.83;6.07;;;;;;;;;;6301222;28;20229;-85
2022/12/26 03:26:38;;;;;;;6.53;5.60;;;;;;;;;;6300182;28;20232;-85
2022/12/26 03:27:55;;;;;;;9.20;5.63;;;;;;;;;;6292261;28;20269;-86
2022/12/26 03:31:03;;;;;;;6.27;5.77;;;;;;;;;;6291685;28;20289;-85
2022/12/26 03:34:17;;;;;;;8.60;6.03;;;;;;;;;;6289851;28;20273;-84
2022/12/26 03:37:42;;;;;;;8.93;5.50;;;;;;;;;;6289694;28;20270;-84
2022/12/26 04:19:26;;;;;;;7.73;6.00;;;;;;;;;;6290849;28;20270;-84
2022/12/26 04:46:57;;;;;;;6.07;5.27;;;;;;;;;;6289703;28;20263;-84
2022/12/26 04:50:11;;;;;;;7.63;5.07;;;;;;;;;;6289267;28;20275;-85
2022/12/26 04:53:16;;;;;;;6.77;5.20;;;;;;;;;;6290598;28;20259;-84
2022/12/26 04:56:22;;;;;;;5.23;4.73;;;;;;;;;;6271693;28;20274;-84
2022/12/26 04:59:27;;;;;;;6.60;4.50;;;;;;;;;;6288727;28;20277;-85
2022/12/26 05:09:36;;;;;;;4.03;3.67;;;;;;;;;;6290912;28;20269;-83
2022/12/26 05:12:42;;;;;;;5.00;4.00;;;;;;;;;;6293955;28;20272;-84
2022/12/26 05:29:30;;;;;;;6.97;4.13;;;;;;;;;;6238081;28;20263;-83
2022/12/26 05:36:00;;;;;;;9.10;4.33;;;;;;;;;;6289937;28;20554;-84
2022/12/26 05:39:06;;;;;;;5.03;4.63;;;;;;;;;;6272428;28;20256;-83
2022/12/26 05:42:13;;;;;;;6.40;4.50;;;;;;;;;;6289314;28;20279;-84
2022/12/26 05:45:18;;;;;;;8.37;5.93;;;;;;;;;;6288418;28;20271;-83
2022/12/26 05:48:24;;;;;;;8.70;5.60;;;;;;;;;;6288205;28;20271;-83
2022/12/26 05:51:31;;;;;;;7.87;5.80;;;;;;;;;;6288317;28;20288;-82
2022/12/26 05:54:37;;;;;;;9.50;6.13;;;;;;;;;;6288662;28;20276;-83
2022/12/26 05:57:42;;;;;;;11.17;6.60;;;;;;;;;;6287611;28;20274;-83
2022/12/26 06:00:47;;;;;;;8.00;5.77;;;;;;;;;;6271005;28;20290;-84
2022/12/26 06:03:54;;;;;;;10.47;6.33;;;;;;;;;;6287969;28;20295;-83
2022/12/26 06:07:01;;;;;;;11.20;6.27;;;;;;;;;;6270259;28;20273;-84
2022/12/26 06:10:07;;;;;;;10.27;6.10;;;;;;;;;;6287834;28;20271;-83
2022/12/26 06:13:12;;;;;;;7.47;5.73;;;;;;;;;;6269516;28;20283;-83
2022/12/26 06:16:19;;;;;;;9.70;5.77;;;;;;;;;;6245281;28;20266;-85
2022/12/26 06:19:24;;;;;;;9.53;5.33;;;;;;;;;;6262888;28;20271;-83
2022/12/26 06:22:31;;;;;;;6.07;5.03;;;;;;;;;;6263213;28;20276;-82
2022/12/26 06:25:36;;;;;;;6.00;5.40;;;;;;;;;;6247313;28;20279;-84
2022/12/26 06:28:42;;;;;;;8.80;6.33;;;;;;;;;;6267545;28;20266;-83
2022/12/26 06:31:48;;;;;;;7.70;5.30;;;;;;;;;;6267201;28;20285;-84
2022/12/26 06:34:53;;;;;;;6.60;5.40;;;;;;;;;;6267546;28;20268;-82
2022/12/26 06:38:00;;;;;;;8.63;5.43;;;;;;;;;;6268256;28;20571;-83
2022/12/26 06:41:08;;;;;;;6.23;5.40;;;;;;;;;;6251964;28;20272;-84
2022/12/26 06:44:13;;;;;;;6.83;5.10;;;;;;;;;;6250204;28;20272;-85
2022/12/26 06:47:22;;;;;;;7.13;5.03;;;;;;;;;;6266648;28;20271;-83
2022/12/26 06:50:28;;;;;;;5.13;4.50;;;;;;;;;;6265363;28;20451;-84
2022/12/26 06:53:35;;;;;;;6.00;4.87;;;;;;;;;;6265774;28;20587;-83
2022/12/26 06:56:41;;;;;;;5.93;4.67;;;;;;;;;;6266389;28;20259;-85
2022/12/26 06:59:46;;;;;;;5.97;4.87;;;;;;;;;;6267420;28;20562;-84
2022/12/26 07:02:51;;;;;;;4.90;4.40;;;;;;;;;;6266966;28;20302;-83
2022/12/26 07:05:56;;;;;;;4.17;3.57;;;;;;;;;;6281956;28;20300;-83
2022/12/26 07:09:05;;;;;;;4.53;4.23;;;;;;;;;;6291952;28;20274;-84
2022/12/26 07:12:13;;;;;;;4.63;4.13;;;;;;;;;;6283861;28;20293;-83
2022/12/26 07:15:19;;;;;;;3.83;3.50;;;;;;;;;;6291199;28;20271;-84
2022/12/26 07:18:24;;;;;;;3.90;3.53;;;;;;;;;;6274244;28;20433;-83
2022/12/26 07:21:30;;;;;;;4.13;3.63;;;;;;;;;;6291717;28;20271;-82
2022/12/26 07:24:45;;;;;;;4.13;3.73;;;;;;;;;;6291841;28;20270;-83
2022/12/26 07:27:53;;;;;;;6.50;3.63;;;;;;;;;;6291437;28;20275;-82
2022/12/26 07:30:59;;;;;;;4.20;3.57;;;;;;;;;;6290438;28;20266;-82
2022/12/26 07:34:04;;;;;;;3.83;3.53;;;;;;;;;;6291212;28;20315;-84
2022/12/26 07:37:10;;;;;;;3.77;3.47;;;;;;;;;;6289298;28;20271;-83
2022/12/26 07:40:16;;;;;;;4.57;3.37;;;;;;;;;;6273886;28;20274;-83
2022/12/26 07:43:22;;;;;;;4.00;3.70;;;;;;;;;;6289531;28;20274;-83
2022/12/26 07:46:27;;;;;;;4.90;3.40;;;;;;;;;;6290656;28;20277;-82
2022/12/26 07:49:33;;;;;;;8.43;3.57;;;;;;;;;;6290622;28;20267;-83
2022/12/26 07:52:38;;;;;;;3.93;3.63;;;;;;;;;;6290550;28;20473;-83
2022/12/26 07:55:45;;;;;;;3.27;2.87;;;;;;;;;;6272582;28;20274;-84
2022/12/26 07:58:51;;;;;;;4.53;3.17;;;;;;;;;;6290293;28;20270;-83
2022/12/26 08:01:56;;;;;;;5.73;3.30;;;;;;;;;;6290062;28;20279;-83
2022/12/26 08:05:02;;;;;;;3.87;3.57;;;;;;;;;;6289873;28;20299;-83
2022/12/26 08:08:08;;;;;;;5.83;3.63;;;;;;;;;;6282948;28;20271;-83
2022/12/26 08:11:16;;;;;;;3.63;3.20;;;;;;;;;;6290366;28;20270;-83
2022/12/26 08:14:21;;;;;;;3.60;3.30;;;;;;;;;;6290236;28;20290;-82
2022/12/26 08:17:27;;;;;;;4.23;3.60;;;;;;;;;;6289914;28;20278;-83
2022/12/26 08:20:33;;;;;;;4.03;3.67;;;;;;;;;;6290212;28;20554;-85
2022/12/26 08:23:38;;;;;;;6.17;3.93;;;;;;;;;;6289867;28;20267;-84
2022/12/26 08:26:45;;;;;;;6.87;3.90;;;;;;;;;;6290283;28;20271;-83
2022/12/26 08:29:50;;;;;;;4.93;3.90;;;;;;;;;;6289742;28;20270;-82
2022/12/26 08:32:56;;;;;;;4.07;3.77;;;;;;;;;;6290117;28;20290;-83
2022/12/26 08:36:03;;;;;;;6.77;3.97;;;;;;;;;;6289822;28;20274;-83
2022/12/26 08:39:08;;;;;;;4.50;4.10;;;;;;;;;;6288932;28;20290;-82
2022/12/26 08:42:15;;;;;;;9.80;6.70;;;;;;;;;;6271736;28;20264;-83
2022/12/26 08:45:20;;;;;;;4.13;3.73;;;;;;;;;;6287691;28;20270;-86
2022/12/26 08:48:25;;;;;;;5.13;4.40;;;;;;;;;;6288877;28;20277;-83
2022/12/26 08:51:30;;;;;;;5.13;4.63;;;;;;;;;;6289254;28;20268;-82
2022/12/26 08:54:36;;;;;;;5.53;4.50;;;;;;;;;;6289333;28;20282;-84
2022/12/26 08:57:43;;;;;;;5.53;4.27;;;;;;;;;;6271120;28;20268;-85
2022/12/26 09:00:48;;;;;;;4.53;3.23;;;;;;;;;;6270873;28;20301;-83
2022/12/26 09:04:02;;;;;;;5.47;3.60;;;;;;;;;;6271937;28;20282;-83
2022/12/26 09:07:09;;;;;;;3.93;3.70;;;;;;;;;;6288235;28;20276;-82
2022/12/26 09:10:14;;;;;;;6.27;3.60;;;;;;;;;;6289190;28;20554;-83
2022/12/26 09:13:21;;;;;;;4.47;4.10;;;;;;;;;;6289350;28;20491;-84
2022/12/26 09:16:29;;;;;;;3.50;3.23;;;;;;;;;;6289957;28;20269;-83
2022/12/26 09:19:41;;;;;;;5.37;4.40;;;;;;;;;;6305531;28;20275;-83
2022/12/26 09:22:50;;;;;;;4.63;4.23;;;;;;;;;;6302234;28;20255;-82
2022/12/26 09:25:55;;;;;;;6.07;4.63;;;;;;;;;;6303154;28;20220;-82
2022/12/26 09:29:03;;;;;;;5.50;4.27;;;;;;;;;;6300692;28;20219;-82
2022/12/26 09:32:10;;;;;;;5.17;4.77;;;;;;;;;;6294404;28;20259;-80
2022/12/26 09:35:16;;;;;;;8.20;5.10;;;;;;;;;;6300040;28;20282;-82
2022/12/26 09:38:21;;;;;;;8.27;5.70;;;;;;;;;;6300155;28;20230;-83
2022/12/26 09:41:37;;;;;;;6.93;5.43;;;;;;;;;;6304849;28;20270;-84
2022/12/26 09:44:51;;;;;;;10.40;6.03;;;;;;;;;;6289001;28;20272;-83
2022/12/26 09:48:04;;;;;;;11.60;6.50;;;;;;;;;;6288641;28;20421;-84
2022/12/26 09:51:11;;;;;;;9.27;6.20;;;;;;;;;;6288627;28;20279;-84
2022/12/26 09:54:22;;;;;;;15.40;6.97;;;;;;;;;;6287289;28;20294;-84
2022/12/26 09:57:34;;;;;;;9.10;6.20;;;;;;;;;;6289071;28;20270;-82
2022/12/26 10:00:46;;;;;;;11.27;6.97;;;;;;;;;;6286487;28;20266;-82
2022/12/26 10:03:53;;;;;;;15.03;7.63;;;;;;;;;;6288491;28;20281;-83
2022/12/26 10:07:06;;;;;;;18.33;7.83;;;;;;;;;;6285294;28;20265;-83
2022/12/26 10:10:14;;;;;;;17.90;8.47;;;;;;;;;;6286003;28;20271;-83
2022/12/26 10:13:23;;;;;;;17.07;8.50;;;;;;;;;;6267167;28;20378;-84
2022/12/26 10:16:41;;;;;;;18.80;9.10;;;;;;;;;;6263023;28;20546;-84
2022/12/26 10:19:57;;;;;;;22.77;9.10;;;;;;;;;;6244058;28;20602;-84
2022/12/26 10:23:25;;;;;;;17.17;9.70;;;;;;;;;;6260731;28;20275;-84
2022/12/26 10:26:33;;;;;;;23.43;10.10;;;;;;;;;;6260723;28;20272;-84
2022/12/26 10:29:40;;;;;;;20.17;10.23;;;;;;;;;;6260656;28;20290;-83
2022/12/26 10:32:50;;;;;;;28.13;11.07;;;;;;;;;;6260358;28;20275;-83
2022/12/26 10:35:55;;;;;;;21.40;10.10;;;;;;;;;;6260635;28;20295;-83
2022/12/26 10:39:02;;;;;;;25.80;11.43;;;;;;;;;;6243503;28;20462;-83
2022/12/26 10:42:12;;;;;;;17.63;9.67;;;;;;;;;;6260682;28;20267;-84
2022/12/26 10:45:20;;;;;;;22.13;10.80;;;;;;;;;;6243446;28;20283;-83
2022/12/26 10:48:28;;;;;;;27.80;11.23;;;;;;;;;;6263187;28;20264;-85
2022/12/26 10:51:33;;;;;;;22.67;9.73;;;;;;;;;;6264101;28;20442;-83
2022/12/26 10:54:39;;;;;;;31.53;11.53;;;;;;;;;;6262125;28;20602;-85
2022/12/26 10:57:46;;;;;;;21.00;10.30;;;;;;;;;;6243414;28;20274;-84
2022/12/26 11:00:52;;;;;;;30.00;11.57;;;;;;;;;;6260328;28;20341;-84
2022/12/26 11:04:00;;;;;;;24.00;10.40;;;;;;;;;;6260349;28;20268;-84
2022/12/26 11:07:10;;;;;;;28.23;9.90;;;;;;;;;;6287201;28;20271;-83
2022/12/26 11:10:19;;;;;;;25.27;10.00;;;;;;;;;;6270120;28;20267;-83
2022/12/26 11:13:24;;;;;;;19.30;10.23;;;;;;;;;;6292378;28;20264;-84
2022/12/26 11:16:31;;;;;;;24.60;9.90;;;;;;;;;;6292158;28;20441;-83
2022/12/26 11:19:41;;;;;;;21.97;10.13;;;;;;;;;;6292459;28;20442;-83
2022/12/26 11:22:48;;;;;;;19.63;10.13;;;;;;;;;;6273799;28;20279;-84
2022/12/26 11:25:55;;;;;;;26.10;11.17;;;;;;;;;;6291979;28;20278;-84
2022/12/26 11:29:09;;;;;;;20.23;10.40;;;;;;;;;;6272423;28;20276;-84
2022/12/26 11:32:20;;;;;;;20.90;10.50;;;;;;;;;;6249498;28;20276;-84
2022/12/26 11:35:33;;;;;;;24.50;10.77;;;;;;;;;;6249261;28;20451;-83
2022/12/26 11:38:51;;;;;;;28.50;10.37;;;;;;;;;;6267081;28;20271;-83
2022/12/26 11:41:57;;;;;;;17.70;10.03;;;;;;;;;;6266914;28;20271;-83
2022/12/26 11:45:10;;;;;;;16.43;9.37;;;;;;;;;;6265491;28;20308;-83
2022/12/26 11:48:23;;;;;;;14.93;9.20;;;;;;;;;;6266337;28;20271;-83
2022/12/26 11:51:40;;;;;;;17.07;9.33;;;;;;;;;;6265287;28;20275;-84
2022/12/26 11:54:50;;;;;;;19.13;9.77;;;;;;;;;;6265681;28;20294;-82
2022/12/26 11:58:00;;;;;;;16.77;8.93;;;;;;;;;;6247937;28;20298;-84
2022/12/26 12:01:15;;;;;;;16.47;8.50;;;;;;;;;;6265265;28;20281;-83
2022/12/26 12:04:21;;;;;;;16.83;9.63;;;;;;;;;;6265675;28;20317;-84
2022/12/26 12:07:50;;;;;;;22.70;9.37;;;;;;;;;;6264662;28;20282;-84
2022/12/26 12:11:05;;;;;;;21.80;9.70;;;;;;;;;;6265264;28;20570;-84
2022/12/26 12:14:28;;;;;;;15.60;8.87;;;;;;;;;;6264790;28;20280;-82
2022/12/26 12:17:41;;;;;;;16.87;8.57;;;;;;;;;;6247531;28;20275;-83
2022/12/26 12:20:57;;;;;;;13.50;8.73;;;;;;;;;;6248148;28;20268;-83
2022/12/26 12:24:33;;;;;;;15.10;8.53;;;;;;;;;;6247395;28;20269;-83
2022/12/26 12:27:46;;;;;;;15.20;8.60;;;;;;;;;;6242397;28;20425;-83
2022/12/26 12:30:55;;;;;;;14.77;8.07;;;;;;;;;;6266609;28;20278;-84
2022/12/26 12:34:08;;;;;;;14.97;8.93;;;;;;;;;;6265618;28;20271;-83
2022/12/26 12:37:24;;;;;;;19.90;7.70;;;;;;;;;;6264648;28;20294;-83
2022/12/26 12:40:36;;;;;;;17.60;8.33;;;;;;;;;;6266475;28;20275;-84
2022/12/26 12:43:55;;;;;;;17.07;8.80;;;;;;;;;;6264790;28;20308;-83
2022/12/26 12:47:07;;;;;;;13.47;8.20;;;;;;;;;;6264683;28;20279;-83
2022/12/26 12:50:17;;;;;;;16.57;8.90;;;;;;;;;;6264749;28;20355;-84
2022/12/26 12:53:32;;;;;;;17.10;9.00;;;;;;;;;;6264136;28;20259;-85
2022/12/26 12:56:43;;;;;;;11.17;5.97;;;;;;;;;;6265052;28;20405;-83
2022/12/26 12:59:56;;;;;;;21.87;8.23;;;;;;;;;;6263790;28;20271;-84
2022/12/26 13:03:04;;;;;;;12.10;7.83;;;;;;;;;;6263529;28;20272;-83
2022/12/26 13:06:11;;;;;;;17.23;8.83;;;;;;;;;;6263355;28;20295;-82
2022/12/26 13:09:20;;;;;;;17.63;7.70;;;;;;;;;;6247580;28;20286;-83
2022/12/26 13:12:33;;;;;;;15.00;7.80;;;;;;;;;;6275868;28;20262;-82
2022/12/26 13:15:43;;;;;;;11.07;7.63;;;;;;;;;;6271870;28;20307;-82
2022/12/26 13:18:52;;;;;;;13.83;7.43;;;;;;;;;;6288833;28;20560;-83
2022/12/26 13:22:02;;;;;;;14.40;7.97;;;;;;;;;;6288419;28;20223;-82
2022/12/26 13:25:09;;;;;;;11.00;7.37;;;;;;;;;;6288126;28;20273;-84
2022/12/26 13:28:19;;;;;;;15.77;8.00;;;;;;;;;;6271895;28;20267;-83
2022/12/26 13:31:24;;;;;;;10.83;7.40;;;;;;;;;;6288791;28;20273;-83
2022/12/26 13:34:30;;;;;;;11.53;7.20;;;;;;;;;;6287588;28;20279;-82
2022/12/26 13:37:56;;;;;;;10.00;7.40;;;;;;;;;;6287839;28;20288;-82
2022/12/26 13:43:53;;;;;;;12.10;7.33;;;;;;;;;;6287741;28;20279;-83
2022/12/26 13:44:31;;;;;;;15.33;7.60;;;;;;;;;;6287601;28;20457;-83
2022/12/26 13:47:38;;;;;;;10.13;7.10;;;;;;;;;;6288048;28;20282;-82
2022/12/26 13:50:51;;;;;;;7.23;5.80;;;;;;;;;;6287924;28;20270;-82
2022/12/26 13:54:08;;;;;;;17.17;8.53;;;;;;;;;;6287473;28;20277;-83
2022/12/26 13:57:36;;;;;;;12.13;7.00;;;;;;;;;;6287571;28;20290;-83
2022/12/26 14:00:45;;;;;;;13.77;8.07;;;;;;;;;;6287470;28;20274;-83
2022/12/26 14:04:01;;;;;;;16.90;7.73;;;;;;;;;;6287789;28;20267;-83
2022/12/26 14:07:21;;;;;;;13.97;7.93;;;;;;;;;;6287751;28;20285;-83
2022/12/26 14:10:33;;;;;;;10.63;7.87;;;;;;;;;;6288433;28;20432;-82
2022/12/26 14:13:54;;;;;;;11.43;7.70;;;;;;;;;;6286814;28;20262;-82
2022/12/26 14:17:09;;;;;;;9.80;7.87;;;;;;;;;;6286451;28;20287;-83
2022/12/26 14:20:29;;;;;;;15.00;8.43;;;;;;;;;;6286959;28;20575;-83
2022/12/26 14:23:46;;;;;;;18.00;8.83;;;;;;;;;;6287193;28;20274;-82
2022/12/26 14:26:57;;;;;;;17.20;8.97;;;;;;;;;;6286904;28;20285;-83
2022/12/26 14:30:24;;;;;;;12.83;8.57;;;;;;;;;;6286560;28;20278;-83
2022/12/26 14:33:35;;;;;;;11.40;7.70;;;;;;;;;;6287806;28;20262;-83
2022/12/26 14:36:47;;;;;;;13.10;8.47;;;;;;;;;;6287158;28;20301;-82
2022/12/26 14:40:16;;;;;;;14.93;8.27;;;;;;;;;;6287101;28;20441;-84
2022/12/26 14:43:34;;;;;;;13.87;9.23;;;;;;;;;;6286192;28;20276;-82
2022/12/26 14:47:09;;;;;;;14.23;9.07;;;;;;;;;;6289791;28;20273;-84
2022/12/26 14:50:42;;;;;;;15.10;8.07;;;;;;;;;;6217102;28;20273;-83
2022/12/26 14:53:50;;;;;;;12.93;9.17;;;;;;;;;;6291539;28;20432;-83
2022/12/26 14:56:56;;;;;;;16.07;9.73;;;;;;;;;;6290824;28;20295;-83
2022/12/26 15:00:29;;;;;;;13.60;8.53;;;;;;;;;;6290789;28;20267;-83
2022/12/26 15:03:46;;;;;;;15.83;9.40;;;;;;;;;;6289662;28;20294;-83
2022/12/26 15:07:07;;;;;;;21.47;10.57;;;;;;;;;;6265480;28;20275;-81
2022/12/26 15:10:42;;;;;;;21.60;10.97;;;;;;;;;;6266294;28;20272;-82
2022/12/26 15:14:21;;;;;;;23.47;11.80;;;;;;;;;;6257620;28;20322;-82
2022/12/26 15:17:34;;;;;;;18.03;11.60;;;;;;;;;;6256441;28;20298;-81
2022/12/26 15:21:12;;;;;;;21.73;12.70;;;;;;;;;;6248768;28;20274;-82
2022/12/26 15:25:10;;;;;;;16.83;11.37;;;;;;;;;;6267952;28;20271;-81
2022/12/26 15:28:58;;;;;;;22.83;12.63;;;;;;;;;;6281571;28;20223;-81
2022/12/26 15:32:10;;;;;;;26.63;12.83;;;;;;;;;;6270775;28;20268;-83
2022/12/26 15:35:21;;;;;;;27.70;12.40;;;;;;;;;;6250438;28;20271;-83
2022/12/26 15:38:32;;;;;;;24.53;13.53;;;;;;;;;;6266422;28;20284;-83
2022/12/26 15:41:46;;;;;;;21.70;12.73;;;;;;;;;;6266966;28;20268;-84
2022/12/26 15:44:59;;;;;;;20.83;12.70;;;;;;;;;;6266512;28;20268;-83
2022/12/26 15:48:11;;;;;;;26.43;13.33;;;;;;;;;;6249290;28;20265;-83
2022/12/26 15:51:19;;;;;;;27.83;13.83;;;;;;;;;;6249354;28;20273;-83
2022/12/26 15:54:59;;;;;;;22.00;12.47;;;;;;;;;;6266510;28;20578;-84
2022/12/26 15:58:12;;;;;;;24.13;12.73;;;;;;;;;;6265837;28;20481;-82
2022/12/26 16:01:36;;;;;;;23.90;13.57;;;;;;;;;;6249117;28;20278;-84
2022/12/26 16:04:47;;;;;;;24.27;13.37;;;;;;;;;;6274325;28;20307;-82
2022/12/26 16:07:55;;;;;;;27.63;13.43;;;;;;;;;;6289884;28;20271;-82
2022/12/26 16:11:15;;;;;;;26.23;12.33;;;;;;;;;;6273713;28;20278;-84
2022/12/26 16:14:31;;;;;;;28.47;14.70;;;;;;;;;;6269567;28;20276;-84
2022/12/26 16:17:37;;;;;;;29.40;13.00;;;;;;;;;;6277939;28;20281;-83
2022/12/26 16:24:08;;;;;;;32.00;15.07;;;;;;;;;;6268086;28;20578;-83
2022/12/26 16:27:17;;;;;;;28.60;13.83;;;;;;;;;;6265048;28;20263;-83
2022/12/26 16:30:25;;;;;;;26.73;13.57;;;;;;;;;;6264472;28;20258;-83
2022/12/26 16:33:32;;;;;;;25.83;14.10;;;;;;;;;;6265954;28;20267;-84
2022/12/26 16:36:38;;;;;;;30.40;15.20;;;;;;;;;;6264033;28;20270;-84
2022/12/26 16:39:43;;;;;;;25.77;13.80;;;;;;;;;;6265753;28;20271;-82
2022/12/26 16:42:57;;;;;;;27.93;14.20;;;;;;;;;;6264960;28;20535;-84
2022/12/26 16:46:06;;;;;;;24.97;13.73;;;;;;;;;;6264588;28;20268;-84
2022/12/26 16:49:13;;;;;;;27.63;14.33;;;;;;;;;;6265340;28;20267;-82
2022/12/26 16:52:31;;;;;;;24.23;13.07;;;;;;;;;;6265398;28;20279;-85
2022/12/26 16:55:40;;;;;;;28.70;13.50;;;;;;;;;;6265552;28;20276;-85
2022/12/26 16:58:46;;;;;;;24.30;12.53;;;;;;;;;;6264839;28;20301;-86
2022/12/26 17:01:55;;;;;;;28.07;13.30;;;;;;;;;;6263743;28;20282;-83
2022/12/26 17:05:04;;;;;;;27.73;13.63;;;;;;;;;;6264794;28;20323;-85
2022/12/26 17:08:14;;;;;;;25.83;12.80;;;;;;;;;;6267438;28;20275;-84
2022/12/26 17:11:25;;;;;;;26.30;12.73;;;;;;;;;;6280399;28;20231;-79
2022/12/26 17:14:33;;;;;;;22.67;12.33;;;;;;;;;;6302896;28;20225;-80
2022/12/26 17:17:43;;;;;;;30.97;13.90;;;;;;;;;;6303646;28;20278;-78
2022/12/26 17:20:48;;;;;;;24.53;13.37;;;;;;;;;;6302851;28;20226;-79
2022/12/26 17:24:22;;;;;;;24.57;13.17;;;;;;;;;;6294422;28;20278;-80
2022/12/26 17:27:28;;;;;;;30.90;13.87;;;;;;;;;;6241821;28;20275;-79
2022/12/26 17:30:35;;;;;;;30.17;13.70;;;;;;;;;;6285383;28;20288;-80
2022/12/26 17:33:43;;;;;;;28.50;12.83;;;;;;;;;;6286602;28;20274;-83
2022/12/26 17:36:52;;;;;;;26.23;12.90;;;;;;;;;;6288715;28;20527;-82
2022/12/26 17:40:27;;;;;;;32.33;14.13;;;;;;;;;;6285946;28;20305;-81
2022/12/26 17:43:35;;;;;;;34.17;13.50;;;;;;;;;;6287281;28;20274;-85
2022/12/26 17:46:40;;;;;;;25.23;13.13;;;;;;;;;;6269013;28;20273;-88
2022/12/26 17:49:47;;;;;;;27.93;12.67;;;;;;;;;;6287166;28;20273;-79
2022/12/26 17:52:53;;;;;;;32.80;13.43;;;;;;;;;;6286111;28;20286;-79
2022/12/26 17:56:03;;;;;;;31.57;13.10;;;;;;;;;;6285670;28;20267;-81
2022/12/26 17:59:12;;;;;;;28.90;13.17;;;;;;;;;;6286184;28;20293;-82
2022/12/26 18:02:18;;;;;;;33.27;12.93;;;;;;;;;;6288524;28;20267;-82
2022/12/26 18:05:25;;;;;;;29.03;12.43;;;;;;;;;;6286065;28;20327;-82
2022/12/26 18:08:33;;;;;;;24.73;11.87;;;;;;;;;;6282521;28;20266;-86
2022/12/26 18:11:38;;;;;;;28.87;13.00;;;;;;;;;;6291563;28;20262;-91
2022/12/26 18:14:43;;;;;;;28.83;12.87;;;;;;;;;;6272671;28;20268;-88
2022/12/26 18:17:51;;;;;;;26.17;12.50;;;;;;;;;;6289370;28;20432;-90
2022/12/26 18:20:57;;;;;;;22.23;10.83;;;;;;;;;;6293592;28;20286;-89
2022/12/26 18:24:03;;;;;;;23.30;11.57;;;;;;;;;;6297232;28;20266;-87
2022/12/26 18:27:14;;;;;;;24.07;11.53;;;;;;;;;;6296212;28;20444;-84
2022/12/26 18:30:21;;;;;;;24.13;12.17;;;;;;;;;;6295776;28;20275;-83
2022/12/26 18:33:27;;;;;;;22.70;11.37;;;;;;;;;;6296726;28;20264;-86
2022/12/26 18:36:37;;;;;;;24.83;11.47;;;;;;;;;;6293907;28;20470;-83
2022/12/26 18:39:42;;;;;;;18.87;11.00;;;;;;;;;;6294738;28;20287;-84
2022/12/26 18:42:47;;;;;;;19.40;10.73;;;;;;;;;;6296271;28;20455;-83
2022/12/26 18:45:53;;;;;;;21.43;10.27;;;;;;;;;;6295647;28;20271;-83
2022/12/26 18:48:58;;;;;;;20.67;10.27;;;;;;;;;;6296373;28;20267;-83
2022/12/26 18:52:04;;;;;;;16.20;9.67;;;;;;;;;;6281355;28;20263;-85
2022/12/26 18:55:12;;;;;;;21.73;9.87;;;;;;;;;;6296361;28;20273;-86
2022/12/26 18:58:17;;;;;;;13.97;8.10;;;;;;;;;;6296680;28;20567;-86
2022/12/26 19:01:22;;;;;;;12.20;7.00;;;;;;;;;;6297622;28;20276;-81
2022/12/26 19:04:28;;;;;;;12.90;7.17;;;;;;;;;;6294401;28;20291;-83
2022/12/26 19:07:34;;;;;;;7.83;6.17;;;;;;;;;;6293272;28;20266;-80
2022/12/26 19:10:46;;;;;;;5.57;4.40;;;;;;;;;;6275464;28;20454;-82
2022/12/26 19:13:51;;;;;;;7.50;5.43;;;;;;;;;;6293896;28;20281;-82
2022/12/26 19:16:56;;;;;;;9.77;6.10;;;;;;;;;;6308931;28;20266;-81
2022/12/26 19:20:01;;;;;;;9.17;5.80;;;;;;;;;;6293618;28;20298;-83
2022/12/26 19:23:08;;;;;;;5.30;4.80;;;;;;;;;;6296831;28;20451;-83
2022/12/26 19:26:17;;;;;;;5.33;4.80;;;;;;;;;;6295296;28;20559;-84
2022/12/26 19:29:23;;;;;;;4.63;4.17;;;;;;;;;;6298925;28;20274;-87
2022/12/26 19:32:29;;;;;;;4.30;4.00;;;;;;;;;;6294082;28;20283;-81
2022/12/26 19:35:34;;;;;;;4.63;4.23;;;;;;;;;;6290285;28;20277;-81
2022/12/26 19:38:41;;;;;;;4.53;4.23;;;;;;;;;;6289822;28;20613;-80
2022/12/26 19:41:46;;;;;;;4.73;4.33;;;;;;;;;;6290634;28;20270;-80
2022/12/26 19:44:51;;;;;;;5.33;4.83;;;;;;;;;;6291784;28;20266;-79
2022/12/26 19:47:57;;;;;;;4.50;4.20;;;;;;;;;;6291963;28;20287;-77
2022/12/26 19:51:02;;;;;;;4.83;4.43;;;;;;;;;;6290176;28;20310;-79
2022/12/26 19:54:08;;;;;;;6.43;4.53;;;;;;;;;;6291880;28;20270;-80
2022/12/26 19:57:14;;;;;;;4.20;3.90;;;;;;;;;;6291203;28;20273;-81
2022/12/26 20:00:20;;;;;;;4.30;4.00;;;;;;;;;;6290814;28;20284;-80
2022/12/26 20:03:26;;;;;;;3.70;3.50;;;;;;;;;;6293066;28;20267;-81
2022/12/26 20:06:33;;;;;;;3.33;3.13;;;;;;;;;;6291087;28;20293;-81
2022/12/26 20:09:40;;;;;;;4.00;3.80;;;;;;;;;;6290139;28;20271;-79
2022/12/26 20:12:45;;;;;;;3.93;3.60;;;;;;;;;;6291441;28;20269;-83
2022/12/26 20:15:51;;;;;;;3.20;3.00;;;;;;;;;;6291387;28;20282;-81
2022/12/26 20:18:56;;;;;;;4.60;3.13;;;;;;;;;;6289971;28;20455;-82
2022/12/26 20:22:01;;;;;;;2.97;2.80;;;;;;;;;;6273612;28;20263;-82
2022/12/26 20:25:09;;;;;;;3.00;2.90;;;;;;;;;;6290404;28;20273;-80
2022/12/26 20:28:14;;;;;;;3.17;3.07;;;;;;;;;;6290250;28;20272;-83
2022/12/26 20:31:21;;;;;;;3.57;3.33;;;;;;;;;;6272795;28;20261;-82
2022/12/26 20:34:26;;;;;;;3.07;2.87;;;;;;;;;;6290816;28;20269;-83
2022/12/26 20:37:31;;;;;;;3.30;3.00;;;;;;;;;;6290130;28;20260;-83
2022/12/26 20:40:38;;;;;;;3.00;2.87;;;;;;;;;;6289327;28;20340;-81
2022/12/26 20:43:43;;;;;;;3.00;2.80;;;;;;;;;;6288211;28;20271;-83